Tucumcari Municipal Airport
KTCC : now visible

Airfield :











YOU CAN JOIN US ON...

 
LOGIN :

Register | Disclaimer

   EN    FR    IT 

 









Legend :    VFR   Marginal VFR   IFR   Intensive IFR   Very Intensive IFR
Visi :
Ceiling :
>= 8 km
>= 3000ft
5 to 8 km
1000 to 3000 ft
1500m to 5 km
500 to 1000 ft
800 to 1500m
200 to 500 ft
< 800m
< 200 ft
Symbols :   Thunderstorms  Fog  Heavy snow  Heavy precipitations  Wind > 20 kt






- Airport Elevation : 4065 ft


KTCC - Tucumcari Municipal

CURRENT METAR :
  • 121853Z AUTO 07004KT 10SM CLR 11/M04 A3007 RMK AO2 SLP167 T01111044

EXPIRED METARs :
  • 121753Z AUTO 02004KT 10SM CLR 11/M04 A3011 RMK AO2 SLP181 T01061044 10106 21028 58000
  • 121653Z AUTO 02006KT 10SM CLR 09/M04 A3013 RMK AO2 SLP189 T00941044

TAF KTCC
Valid from the 12 at 18:00 until the 13 at 18:00 UTC


121720Z 1218/1318 VRB06KT P6SM SCT200
FM130700 28012KT P6SM SCT250



MET'MAP, your aeronautical weather chart ! - Copyright ORBIFLY December 2007 - Disclaimer

ORBIFLY MET'MAP TEAM :

Programming & Development : Alexandra Zaïnal
Concept & original design : Baudouin d'Aumeries
Assistance for programming : Marc-Olivier Méhu
Technical & hardware support : Manuel Goepfert

Contact : metmap@orbifly.com




SOURCES & CREDITS :

   NOAA       Earth
Advisory